createdAt,value
2023-01-15T00:02:26.766Z,89.46
2023-01-15T00:04:54.693Z,90.70
2023-01-15T00:07:22.511Z,92.38
2023-01-15T00:09:51.272Z,92.27
2023-01-15T00:12:19.086Z,93.20
2023-01-15T00:14:47.217Z,94.08
2023-01-15T00:17:14.941Z,92.11
2023-01-15T00:19:42.692Z,92.80
2023-01-15T00:22:10.761Z,94.06
2023-01-15T00:24:56.941Z,92.11
2023-01-15T00:27:40.025Z,92.50
2023-01-15T00:30:09.684Z,94.01
2023-01-15T00:32:37.445Z,93.16
2023-01-15T00:35:05.455Z,92.75
2023-01-15T00:37:33.249Z,92.09
2023-01-15T00:40:00.997Z,94.18
2023-01-15T00:42:28.746Z,96.31
2023-01-15T00:44:57.328Z,97.21
2023-01-15T00:47:25.175Z,95.60
2023-01-15T00:49:52.953Z,95.86
2023-01-15T00:52:20.740Z,89.40
2023-01-15T00:54:49.483Z,90.93
2023-01-15T00:57:17.219Z,83.08
2023-01-15T00:59:45.049Z,84.27
2023-01-15T01:02:12.924Z,81.04
2023-01-15T01:04:40.746Z,82.07
2023-01-15T01:07:08.480Z,78.61
2023-01-15T01:09:36.319Z,76.12
2023-01-15T01:12:04.059Z,78.19
2023-01-15T01:14:31.843Z,76.07
2023-01-15T01:16:59.615Z,76.40
2023-01-15T01:19:27.540Z,75.17
2023-01-15T01:21:55.535Z,74.56
2023-01-15T01:24:24.355Z,75.05
2023-01-15T01:26:54.314Z,73.99
2023-01-15T01:29:22.995Z,74.60
2023-01-15T01:31:52.209Z,74.33
2023-01-15T01:34:20.095Z,74.63
2023-01-15T01:36:48.265Z,73.65
2023-01-15T01:39:17.877Z,73.09
2023-01-15T01:41:46.069Z,70.00
2023-01-15T01:44:38.477Z,71.58
2023-01-15T01:47:10.926Z,70.18
2023-01-15T01:49:39.648Z,71.29
2023-01-15T01:52:09.533Z,72.55
2023-01-15T01:54:37.507Z,72.44
2023-01-15T01:57:05.362Z,73.10
2023-01-15T01:59:33.155Z,74.41
2023-01-15T02:02:01.184Z,74.01
2023-01-15T02:04:29.152Z,75.91
2023-01-15T02:06:56.930Z,76.72
2023-01-15T02:09:24.720Z,76.41
2023-01-15T02:11:56.901Z,78.39
2023-01-15T02:14:32.356Z,83.41
2023-01-15T02:17:15.191Z,91.14
2023-01-15T02:19:51.635Z,81.55
2023-01-15T02:22:36.333Z,79.99
2023-01-15T02:25:25.882Z,81.24
2023-01-15T02:27:59.191Z,81.13
2023-01-15T02:30:33.403Z,82.61
2023-01-15T02:33:08.023Z,83.24
2023-01-15T02:35:46.047Z,89.08
2023-01-15T02:38:16.560Z,88.94
2023-01-15T02:40:44.296Z,87.00
2023-01-15T02:43:12.146Z,86.94
2023-01-15T02:45:41.967Z,87.50
2023-01-15T02:48:15.624Z,88.67
2023-01-15T02:50:49.656Z,83.59
2023-01-15T02:53:22.870Z,83.88
2023-01-15T02:55:51.601Z,82.12
2023-01-15T02:58:22.754Z,81.05
2023-01-15T03:00:51.304Z,81.47
2023-01-15T03:03:41.051Z,81.29
2023-01-15T03:06:27.836Z,81.49
2023-01-15T03:08:55.611Z,82.39
2023-01-15T03:11:23.474Z,82.47
2023-01-15T03:14:08.657Z,84.65
2023-01-15T03:16:40.622Z,84.59
2023-01-15T03:19:10.821Z,83.85
2023-01-15T03:21:46.765Z,84.09
2023-01-15T03:24:14.923Z,93.34
2023-01-15T03:26:42.738Z,93.89
2023-01-15T03:29:10.496Z,86.22
2023-01-15T03:31:38.810Z,84.92
2023-01-15T03:34:08.283Z,90.09
2023-01-15T03:36:36.533Z,86.81
2023-01-15T03:39:04.793Z,90.37
2023-01-15T03:41:38.407Z,94.75
2023-01-15T03:44:20.947Z,88.35
2023-01-15T03:47:13.892Z,92.49
2023-01-15T03:50:03.554Z,89.80
2023-01-15T03:52:47.401Z,87.66
2023-01-15T03:55:31.145Z,89.14
2023-01-15T03:58:22.767Z,87.22
2023-01-15T04:00:54.615Z,87.88
2023-01-15T04:03:23.730Z,87.00
2023-01-15T04:05:51.730Z,88.25
2023-01-15T04:08:19.466Z,95.29
2023-01-15T04:11:00.123Z,94.90
2023-01-15T04:13:30.946Z,89.45
2023-01-15T04:15:59.406Z,88.97
2023-01-15T04:18:27.267Z,89.56
2023-01-15T04:20:57.955Z,89.96
2023-01-15T04:23:25.734Z,90.47
2023-01-15T04:25:53.457Z,91.42
2023-01-15T04:28:21.234Z,93.57
2023-01-15T04:30:49.014Z,95.52
2023-01-15T04:33:16.785Z,96.91
2023-01-15T04:35:45.616Z,98.04
2023-01-15T04:38:13.372Z,100.00
2023-01-15T04:40:59.758Z,100.00
2023-01-15T04:43:45.940Z,100.00
2023-01-15T04:46:13.805Z,100.00
2023-01-15T04:48:41.696Z,100.00
2023-01-15T04:51:09.518Z,100.00
2023-01-15T04:53:37.292Z,100.00
2023-01-15T04:56:05.676Z,100.00
2023-01-15T04:58:33.738Z,100.00
2023-01-15T05:01:04.453Z,100.00
2023-01-15T05:03:32.607Z,100.00
2023-01-15T05:06:03.857Z,100.00
2023-01-15T05:08:31.619Z,100.00
2023-01-15T05:11:03.814Z,100.00
2023-01-15T05:13:34.318Z,100.00
2023-01-15T05:16:33.397Z,100.00
2023-01-15T05:19:03.344Z,100.00
2023-01-15T05:21:35.562Z,100.00
2023-01-15T05:24:04.420Z,100.00
2023-01-15T05:26:32.849Z,100.00
2023-01-15T05:29:01.223Z,100.00
2023-01-15T05:31:29.498Z,100.00
2023-01-15T05:33:57.642Z,100.00
2023-01-15T05:36:27.419Z,100.00
2023-01-15T05:38:55.746Z,100.00
2023-01-15T05:41:42.210Z,100.00
2023-01-15T05:44:12.031Z,100.00
2023-01-15T05:46:40.800Z,100.00
2023-01-15T05:49:10.526Z,100.00
2023-01-15T05:51:38.808Z,100.00
2023-01-15T05:54:07.332Z,100.00
2023-01-15T05:56:38.567Z,100.00
2023-01-15T05:59:06.915Z,100.00
2023-01-15T06:01:34.857Z,100.00
2023-01-15T06:04:03.681Z,100.00
2023-01-15T06:06:31.677Z,100.00
2023-01-15T06:08:59.786Z,100.00
2023-01-15T06:11:27.842Z,100.00
2023-01-15T06:13:55.724Z,100.00
2023-01-15T06:16:23.973Z,100.00
2023-01-15T06:18:51.833Z,100.00
2023-01-15T06:21:19.892Z,100.00
2023-01-15T06:23:47.797Z,100.00
2023-01-15T06:26:17.543Z,100.00
2023-01-15T06:28:45.854Z,100.00
2023-01-15T06:31:15.718Z,100.00
2023-01-15T06:33:43.664Z,100.00
2023-01-15T06:36:25.007Z,100.00
2023-01-15T06:38:52.838Z,100.00
2023-01-15T06:41:43.328Z,100.00
2023-01-15T06:44:32.168Z,100.00
2023-01-15T06:47:18.639Z,100.00
2023-01-15T06:49:46.520Z,100.00
2023-01-15T06:52:14.389Z,100.00
2023-01-15T06:54:42.235Z,100.00
2023-01-15T06:57:09.974Z,100.00
2023-01-15T06:59:37.817Z,100.00
2023-01-15T07:02:05.635Z,100.00
2023-01-15T07:04:33.532Z,100.00
2023-01-15T07:07:01.224Z,100.00
2023-01-15T07:09:29.114Z,100.00
2023-01-15T07:11:56.856Z,100.00
2023-01-15T07:14:25.860Z,100.00
2023-01-15T07:16:53.745Z,100.00
2023-01-15T07:19:21.768Z,100.00
2023-01-15T07:21:50.086Z,100.00
2023-01-15T07:24:18.619Z,100.00
2023-01-15T07:26:46.933Z,100.00
2023-01-15T07:29:14.982Z,100.00
2023-01-15T07:31:43.018Z,100.00
2023-01-15T07:34:11.106Z,100.00
2023-01-15T07:36:39.071Z,100.00
2023-01-15T07:39:07.341Z,100.00
2023-01-15T07:41:53.581Z,100.00
2023-01-15T07:44:39.933Z,100.00
2023-01-15T07:47:45.600Z,100.00
2023-01-15T07:50:22.146Z,100.00
2023-01-15T07:52:52.838Z,100.00
2023-01-15T07:55:20.984Z,100.00
2023-01-15T07:57:48.916Z,100.00
2023-01-15T08:00:20.979Z,100.00
2023-01-15T08:02:51.095Z,100.00
2023-01-15T08:05:19.378Z,100.00
2023-01-15T08:07:47.351Z,100.00
2023-01-15T08:10:15.307Z,100.00
2023-01-15T08:13:01.554Z,100.00
2023-01-15T08:15:31.836Z,100.00
2023-01-15T08:17:59.849Z,100.00
2023-01-15T08:20:27.843Z,100.00
2023-01-15T08:22:55.742Z,100.00
2023-01-15T08:25:25.881Z,100.00
2023-01-15T08:27:53.953Z,100.00
2023-01-15T08:30:23.623Z,100.00
2023-01-15T08:33:00.265Z,100.00
2023-01-15T08:35:28.201Z,100.00
2023-01-15T08:37:56.308Z,100.00
2023-01-15T08:40:29.520Z,100.00
2023-01-15T08:42:57.439Z,100.00
2023-01-15T08:45:25.730Z,100.00
2023-01-15T08:47:57.261Z,100.00
2023-01-15T08:50:25.498Z,100.00
2023-01-15T08:52:53.370Z,100.00
2023-01-15T08:55:22.616Z,100.00
2023-01-15T08:57:50.455Z,100.00
2023-01-15T09:00:18.843Z,100.00
2023-01-15T09:02:48.702Z,100.00
2023-01-15T09:05:17.864Z,100.00
2023-01-15T09:07:45.768Z,100.00
2023-01-15T09:10:13.605Z,100.00
2023-01-15T09:12:41.563Z,100.00
2023-01-15T09:15:10.038Z,100.00
2023-01-15T09:17:42.095Z,100.00
2023-01-15T09:20:11.140Z,100.00
2023-01-15T09:22:38.920Z,100.00
2023-01-15T09:25:07.268Z,100.00
2023-01-15T09:27:35.651Z,100.00
2023-01-15T09:30:03.504Z,100.00
2023-01-15T09:32:31.315Z,100.00
2023-01-15T09:34:59.132Z,100.00
2023-01-15T09:37:26.900Z,100.00
2023-01-15T09:39:55.026Z,100.00
2023-01-15T09:43:09.437Z,100.00
2023-01-15T09:46:10.172Z,100.00
2023-01-15T09:49:05.643Z,100.00
2023-01-15T09:51:59.985Z,100.00
2023-01-15T09:54:57.843Z,100.00
2023-01-15T09:57:29.030Z,100.00
2023-01-15T10:00:02.153Z,100.00
2023-01-15T10:02:41.367Z,100.00
2023-01-15T10:05:12.869Z,100.00
2023-01-15T10:08:09.408Z,100.00
2023-01-15T10:10:42.712Z,100.00
2023-01-15T10:13:36.085Z,100.00
2023-01-15T10:16:04.009Z,100.00
2023-01-15T10:18:31.846Z,100.00
2023-01-15T10:21:09.565Z,100.00
2023-01-15T10:24:06.998Z,100.00
2023-01-15T10:26:51.943Z,100.00
2023-01-15T10:29:52.167Z,100.00
2023-01-15T10:32:20.228Z,100.00
2023-01-15T10:35:21.804Z,100.00
2023-01-15T10:38:20.327Z,100.00
2023-01-15T10:40:51.007Z,100.00
2023-01-15T10:43:37.126Z,100.00
2023-01-15T10:46:11.625Z,100.00
2023-01-15T10:48:54.397Z,100.00
2023-01-15T10:51:24.843Z,100.00
2023-01-15T10:54:20.377Z,100.00
2023-01-15T10:57:17.939Z,100.00
2023-01-15T10:59:49.940Z,100.00
2023-01-15T11:02:30.695Z,100.00
2023-01-15T11:04:58.675Z,100.00
2023-01-15T11:08:06.523Z,100.00
2023-01-15T11:10:34.783Z,100.00
2023-01-15T11:13:28.486Z,100.00
2023-01-15T11:16:14.909Z,100.00
2023-01-15T11:19:02.545Z,100.00
2023-01-15T11:21:30.379Z,100.00
2023-01-15T11:23:58.832Z,100.00
2023-01-15T11:26:30.667Z,100.00
2023-01-15T11:28:59.475Z,100.00
2023-01-15T11:31:39.779Z,100.00
2023-01-15T11:34:16.069Z,100.00
2023-01-15T11:36:43.893Z,100.00
2023-01-15T11:39:25.715Z,100.00
2023-01-15T11:42:18.706Z,100.00
2023-01-15T11:45:15.310Z,100.00
2023-01-15T11:48:15.961Z,100.00
2023-01-15T11:50:57.128Z,100.00
2023-01-15T11:53:29.152Z,100.00
2023-01-15T11:56:07.655Z,100.00
2023-01-15T11:58:56.712Z,100.00
2023-01-15T12:01:36.784Z,100.00
2023-01-15T12:04:07.086Z,100.00
2023-01-15T12:06:38.372Z,100.00
2023-01-15T12:09:12.221Z,100.00
2023-01-15T12:11:56.423Z,100.00
2023-01-15T12:14:45.919Z,100.00
2023-01-15T12:17:19.710Z,100.00
2023-01-15T12:20:18.116Z,100.00
2023-01-15T12:22:54.979Z,100.00
2023-01-15T12:25:34.563Z,100.00
2023-01-15T12:28:19.703Z,100.00
2023-01-15T12:31:06.272Z,100.00
2023-01-15T12:33:54.378Z,100.00
2023-01-15T12:36:48.927Z,100.00
2023-01-15T12:39:31.326Z,100.00
2023-01-15T12:42:19.888Z,100.00
2023-01-15T12:45:09.010Z,100.00
2023-01-15T12:47:39.072Z,100.00
2023-01-15T12:50:33.984Z,100.00
2023-01-15T12:53:29.201Z,100.00
2023-01-15T12:56:03.170Z,100.00
2023-01-15T12:58:43.879Z,100.00
2023-01-15T13:01:39.316Z,100.00
2023-01-15T13:04:20.021Z,100.00
2023-01-15T13:06:50.088Z,100.00
2023-01-15T13:09:25.612Z,100.00
2023-01-15T13:11:53.658Z,100.00
2023-01-15T13:14:22.719Z,100.00
2023-01-15T13:17:15.202Z,100.00
2023-01-15T13:19:49.371Z,100.00
2023-01-15T13:22:19.997Z,100.00
2023-01-15T13:25:12.572Z,100.00
2023-01-15T13:27:49.302Z,100.00
2023-01-15T13:30:33.628Z,100.00
2023-01-15T13:33:13.517Z,100.00
2023-01-15T13:35:46.494Z,100.00
2023-01-15T13:38:22.111Z,100.00
2023-01-15T13:40:53.305Z,100.00
2023-01-15T13:43:42.209Z,100.00
2023-01-15T13:46:14.394Z,100.00
2023-01-15T13:48:48.003Z,100.00
2023-01-15T13:51:26.905Z,100.00
2023-01-15T13:53:54.675Z,100.00
2023-01-15T13:56:33.457Z,100.00
2023-01-15T13:59:03.957Z,100.00
2023-01-15T14:01:31.877Z,100.00
2023-01-15T14:04:14.256Z,100.00
2023-01-15T14:06:55.264Z,100.00
2023-01-15T14:09:26.431Z,100.00
2023-01-15T14:12:19.340Z,100.00
2023-01-15T14:15:29.341Z,100.00
2023-01-15T14:18:15.288Z,100.00
2023-01-15T14:21:04.283Z,100.00
2023-01-15T14:24:27.755Z,100.00
2023-01-15T14:27:09.280Z,100.00
2023-01-15T14:29:45.960Z,100.00
2023-01-15T14:32:33.890Z,100.00
2023-01-15T14:35:02.305Z,100.00
2023-01-15T14:37:35.833Z,100.00
2023-01-15T14:40:04.438Z,100.00
2023-01-15T14:42:58.528Z,100.00
2023-01-15T14:45:39.789Z,100.00
2023-01-15T14:48:26.729Z,100.00
2023-01-15T14:50:55.309Z,100.00
2023-01-15T14:53:32.004Z,100.00
2023-01-15T14:56:15.210Z,100.00
2023-01-15T14:59:03.356Z,100.00
2023-01-15T15:01:35.982Z,100.00
2023-01-15T15:04:12.702Z,100.00
2023-01-15T15:06:51.500Z,100.00
2023-01-15T15:09:32.893Z,100.00
2023-01-15T15:12:21.827Z,100.00
2023-01-15T15:15:12.300Z,100.00
2023-01-15T15:18:12.302Z,100.00
2023-01-15T15:21:00.210Z,100.00
2023-01-15T15:23:29.836Z,100.00
2023-01-15T15:26:02.873Z,100.00
2023-01-15T15:28:34.124Z,100.00
2023-01-15T15:31:02.706Z,100.00
2023-01-15T15:33:41.736Z,100.00
2023-01-15T15:36:10.154Z,100.00
2023-01-15T15:38:47.264Z,100.00
2023-01-15T15:41:19.716Z,100.00
2023-01-15T15:44:12.308Z,100.00
2023-01-15T15:46:58.703Z,100.00
2023-01-15T15:49:30.202Z,100.00
2023-01-15T15:51:59.099Z,100.00
2023-01-15T15:54:34.060Z,100.00
2023-01-15T15:57:15.910Z,100.00
2023-01-15T15:59:51.925Z,100.00
2023-01-15T16:02:19.700Z,100.00
2023-01-15T16:04:55.088Z,100.00
2023-01-15T16:07:36.028Z,100.00
2023-01-15T16:10:08.714Z,100.00
2023-01-15T16:12:37.997Z,100.00
2023-01-15T16:15:06.103Z,100.00
2023-01-15T16:17:33.952Z,100.00
2023-01-15T16:20:01.804Z,100.00
2023-01-15T16:22:29.637Z,100.00
2023-01-15T16:25:01.025Z,100.00
2023-01-15T16:27:33.086Z,100.00
2023-01-15T16:30:00.942Z,100.00
2023-01-15T16:32:30.166Z,100.00
2023-01-15T16:35:27.528Z,100.00
2023-01-15T16:37:56.773Z,100.00
2023-01-15T16:40:38.497Z,100.00
2023-01-15T16:43:09.040Z,100.00
2023-01-15T16:45:39.007Z,100.00
2023-01-15T16:48:09.888Z,100.00
2023-01-15T16:50:39.813Z,100.00
2023-01-15T16:53:08.422Z,100.00
2023-01-15T16:55:36.317Z,100.00
2023-01-15T16:58:13.550Z,100.00
2023-01-15T17:00:52.765Z,100.00
2023-01-15T17:03:22.657Z,100.00
2023-01-15T17:06:12.130Z,100.00
2023-01-15T17:08:40.342Z,100.00
2023-01-15T17:11:39.800Z,100.00
2023-01-15T17:14:27.288Z,100.00
2023-01-15T17:17:23.076Z,100.00
2023-01-15T17:19:51.758Z,100.00
2023-01-15T17:22:27.561Z,100.00
2023-01-15T17:24:57.049Z,100.00
2023-01-15T17:27:25.921Z,100.00
2023-01-15T17:29:54.116Z,100.00
2023-01-15T17:32:27.005Z,100.00
2023-01-15T17:34:54.810Z,100.00
2023-01-15T17:37:27.941Z,100.00
2023-01-15T17:39:55.860Z,100.00
2023-01-15T17:42:27.019Z,99.52
2023-01-15T17:44:56.606Z,100.00
2023-01-15T17:47:24.822Z,100.00
2023-01-15T17:49:52.986Z,100.00
2023-01-15T17:52:21.487Z,99.45
2023-01-15T17:55:07.739Z,98.15
2023-01-15T17:58:00.593Z,98.33
2023-01-15T18:00:48.580Z,97.80
2023-01-15T18:03:40.659Z,97.38
2023-01-15T18:06:10.745Z,95.68
2023-01-15T18:08:38.872Z,96.82
2023-01-15T18:11:06.935Z,96.52
2023-01-15T18:13:34.829Z,96.69
2023-01-15T18:16:05.874Z,96.73
2023-01-15T18:18:39.559Z,94.57
2023-01-15T18:21:08.921Z,95.96
2023-01-15T18:23:40.937Z,95.62
2023-01-15T18:26:09.580Z,94.68
2023-01-15T18:28:38.043Z,95.07
2023-01-15T18:31:06.717Z,94.09
2023-01-15T18:33:34.708Z,93.53
2023-01-15T18:36:12.850Z,94.15
2023-01-15T18:41:38.638Z,93.03
2023-01-15T18:44:28.364Z,92.64
2023-01-15T18:46:58.484Z,94.10
2023-01-15T18:49:27.369Z,93.47
2023-01-15T18:52:14.254Z,93.18
2023-01-15T18:54:42.038Z,94.55
2023-01-15T18:57:10.234Z,93.84
2023-01-15T18:59:38.718Z,93.94
2023-01-15T19:02:24.102Z,94.47
2023-01-15T19:05:13.749Z,93.96
2023-01-15T19:07:47.471Z,92.55
2023-01-15T19:10:17.189Z,92.67
2023-01-15T19:12:59.515Z,92.01
2023-01-15T19:15:52.758Z,91.38
2023-01-15T19:18:57.483Z,92.22
2023-01-15T19:21:26.549Z,92.86
2023-01-15T19:24:01.124Z,92.44
2023-01-15T19:26:29.462Z,91.27
2023-01-15T19:29:25.267Z,92.27
2023-01-15T19:31:54.368Z,93.48
2023-01-15T19:34:33.550Z,93.17
2023-01-15T19:37:02.588Z,93.07
2023-01-15T19:39:34.817Z,93.35
2023-01-15T19:42:24.762Z,93.39
2023-01-15T19:45:11.306Z,93.79
2023-01-15T19:47:59.301Z,91.88
2023-01-15T19:50:36.053Z,91.81
2023-01-15T19:53:04.502Z,90.64
2023-01-15T19:55:33.151Z,90.52
2023-01-15T19:58:08.227Z,90.20
2023-01-15T20:00:37.567Z,89.48
2023-01-15T20:03:05.995Z,89.80
2023-01-15T20:05:33.962Z,89.31
2023-01-15T20:08:02.627Z,89.68
2023-01-15T20:10:36.153Z,89.92
2023-01-15T20:13:26.146Z,90.25
2023-01-15T20:15:54.561Z,89.74
2023-01-15T20:18:24.410Z,89.77
2023-01-15T20:20:56.021Z,89.40
2023-01-15T20:23:23.860Z,88.96
2023-01-15T20:26:02.856Z,89.04
2023-01-15T20:28:31.107Z,88.87
2023-01-15T20:31:01.686Z,89.60
2023-01-15T20:33:30.482Z,89.17
2023-01-15T20:35:58.274Z,90.17
2023-01-15T20:38:29.422Z,90.21
2023-01-15T20:41:26.669Z,90.33
2023-01-15T20:44:13.672Z,89.84
2023-01-15T20:46:41.634Z,90.13
2023-01-15T20:49:26.732Z,88.46
2023-01-15T20:51:54.999Z,88.43
2023-01-15T20:54:23.466Z,89.32
2023-01-15T20:56:51.258Z,88.55
2023-01-15T20:59:19.044Z,88.63
2023-01-15T21:01:47.062Z,88.47
2023-01-15T21:04:15.099Z,89.93
2023-01-15T21:06:43.150Z,88.68
2023-01-15T21:09:11.118Z,87.72
2023-01-15T21:11:39.074Z,88.93
2023-01-15T21:14:06.927Z,89.41
2023-01-15T21:16:34.795Z,89.94
2023-01-15T21:19:05.510Z,88.03
2023-01-15T21:21:33.386Z,89.02
2023-01-15T21:24:02.098Z,88.76
2023-01-15T21:26:30.133Z,88.43
2023-01-15T21:28:57.931Z,87.87
2023-01-15T21:31:25.783Z,87.55
2023-01-15T21:33:55.340Z,88.05
2023-01-15T21:36:23.184Z,87.19
2023-01-15T21:38:52.331Z,87.28
2023-01-15T21:41:20.158Z,87.37
2023-01-15T21:44:06.718Z,85.92
2023-01-15T21:46:34.606Z,86.59
2023-01-15T21:49:02.421Z,87.42
2023-01-15T21:51:31.692Z,86.73
2023-01-15T21:54:00.395Z,86.00
2023-01-15T21:56:28.519Z,85.24
2023-01-15T21:58:56.476Z,85.19
2023-01-15T22:01:24.474Z,85.20
2023-01-15T22:03:52.355Z,85.30
2023-01-15T22:06:20.139Z,85.91
2023-01-15T22:08:47.958Z,85.67
2023-01-15T22:11:15.793Z,86.02
2023-01-15T22:13:43.892Z,84.82
2023-01-15T22:16:11.725Z,84.89
2023-01-15T22:18:39.522Z,85.18
2023-01-15T22:21:08.361Z,85.42
2023-01-15T22:23:36.250Z,85.12
2023-01-15T22:26:04.200Z,85.70
2023-01-15T22:28:32.003Z,84.80
2023-01-15T22:30:59.913Z,84.99
2023-01-15T22:33:28.105Z,83.42
2023-01-15T22:36:00.112Z,85.67
2023-01-15T22:38:28.429Z,85.01
2023-01-15T22:40:59.637Z,84.10
2023-01-15T22:43:27.401Z,82.74
2023-01-15T22:45:55.188Z,82.20
2023-01-15T22:48:22.951Z,81.69
2023-01-15T22:50:50.933Z,81.42
2023-01-15T22:53:18.681Z,82.53
2023-01-15T22:55:46.575Z,81.59
2023-01-15T22:58:14.369Z,82.20
2023-01-15T23:00:42.183Z,81.74
2023-01-15T23:03:09.972Z,82.05
2023-01-15T23:05:40.718Z,82.01
2023-01-15T23:08:08.674Z,83.04
2023-01-15T23:10:36.818Z,81.54
2023-01-15T23:13:04.749Z,81.81
2023-01-15T23:15:32.577Z,82.13
2023-01-15T23:18:00.842Z,82.15
2023-01-15T23:20:28.768Z,82.06
2023-01-15T23:22:56.855Z,82.04
2023-01-15T23:25:24.670Z,82.31
2023-01-15T23:27:52.423Z,81.75
2023-01-15T23:30:20.225Z,81.44
2023-01-15T23:32:48.080Z,82.01
2023-01-15T23:35:16.062Z,81.42
2023-01-15T23:37:43.812Z,81.17
2023-01-15T23:40:12.340Z,80.11
2023-01-15T23:42:58.912Z,80.43
2023-01-15T23:45:45.499Z,80.52
2023-01-15T23:48:13.412Z,80.10
2023-01-15T23:50:41.290Z,80.18
2023-01-15T23:53:09.095Z,80.73
2023-01-15T23:55:37.721Z,80.23
2023-01-15T23:58:05.587Z,81.15
